sensor_id;sensor_type;location;lat;lon;timestamp;P1;durP1;ratioP1;P2;durP2;ratioP2
8048;SDS011;20935;42.660;23.342;2023-04-03T00:01:22;6.50;;;4.60;;
8048;SDS011;20935;42.660;23.342;2023-04-03T00:04:08;7.33;;;5.17;;
8048;SDS011;20935;42.660;23.342;2023-04-03T00:06:53;8.10;;;4.60;;
8048;SDS011;20935;42.660;23.342;2023-04-03T00:09:40;6.00;;;4.40;;
8048;SDS011;20935;42.660;23.342;2023-04-03T00:12:26;7.47;;;4.53;;
8048;SDS011;20935;42.660;23.342;2023-04-03T00:15:11;6.17;;;4.20;;
8048;SDS011;20935;42.660;23.342;2023-04-03T00:17:57;7.43;;;5.13;;
8048;SDS011;20935;42.660;23.342;2023-04-03T00:20:42;5.80;;;3.73;;
8048;SDS011;20935;42.660;23.342;2023-04-03T00:23:28;6.47;;;4.03;;
8048;SDS011;20935;42.660;23.342;2023-04-03T00:26:15;5.90;;;4.03;;
8048;SDS011;20935;42.660;23.342;2023-04-03T00:29:00;5.40;;;4.27;;
8048;SDS011;20935;42.660;23.342;2023-04-03T00:31:46;5.77;;;4.00;;
8048;SDS011;20935;42.660;23.342;2023-04-03T00:34:31;7.13;;;4.23;;
8048;SDS011;20935;42.660;23.342;2023-04-03T00:37:17;5.43;;;4.17;;
8048;SDS011;20935;42.660;23.342;2023-04-03T00:40:03;5.90;;;4.27;;
8048;SDS011;20935;42.660;23.342;2023-04-03T00:42:54;7.67;;;4.57;;
8048;SDS011;20935;42.660;23.342;2023-04-03T00:45:42;6.60;;;4.37;;
8048;SDS011;20935;42.660;23.342;2023-04-03T00:48:29;6.80;;;4.17;;
8048;SDS011;20935;42.660;23.342;2023-04-03T00:51:18;6.37;;;5.17;;
8048;SDS011;20935;42.660;23.342;2023-04-03T00:54:08;7.77;;;5.13;;
8048;SDS011;20935;42.660;23.342;2023-04-03T00:56:55;7.87;;;4.93;;
8048;SDS011;20935;42.660;23.342;2023-04-03T00:59:44;5.80;;;4.87;;
8048;SDS011;20935;42.660;23.342;2023-04-03T01:02:34;8.03;;;5.03;;
8048;SDS011;20935;42.660;23.342;2023-04-03T01:05:20;7.87;;;5.40;;
8048;SDS011;20935;42.660;23.342;2023-04-03T01:08:06;6.33;;;5.43;;
8048;SDS011;20935;42.660;23.342;2023-04-03T01:10:51;7.70;;;4.87;;
8048;SDS011;20935;42.660;23.342;2023-04-03T01:13:37;6.50;;;5.10;;
8048;SDS011;20935;42.660;23.342;2023-04-03T01:16:24;7.80;;;5.47;;
8048;SDS011;20935;42.660;23.342;2023-04-03T01:19:11;6.03;;;4.90;;
8048;SDS011;20935;42.660;23.342;2023-04-03T01:22:02;10.13;;;5.23;;
8048;SDS011;20935;42.660;23.342;2023-04-03T01:25:00;5.30;;;4.77;;
8048;SDS011;20935;42.660;23.342;2023-04-03T01:27:46;6.87;;;4.70;;
8048;SDS011;20935;42.660;23.342;2023-04-03T01:30:33;5.63;;;4.53;;
8048;SDS011;20935;42.660;23.342;2023-04-03T01:33:22;5.77;;;5.13;;
8048;SDS011;20935;42.660;23.342;2023-04-03T01:36:08;5.97;;;4.70;;
8048;SDS011;20935;42.660;23.342;2023-04-03T01:38:55;8.90;;;6.20;;
8048;SDS011;20935;42.660;23.342;2023-04-03T01:41:42;7.33;;;5.33;;
8048;SDS011;20935;42.660;23.342;2023-04-03T01:44:27;8.00;;;5.10;;
8048;SDS011;20935;42.660;23.342;2023-04-03T01:47:12;8.97;;;4.80;;
8048;SDS011;20935;42.660;23.342;2023-04-03T01:50:02;8.13;;;5.37;;
8048;SDS011;20935;42.660;23.342;2023-04-03T01:52:48;5.57;;;5.03;;
8048;SDS011;20935;42.660;23.342;2023-04-03T01:55:33;4.93;;;4.43;;
8048;SDS011;20935;42.660;23.342;2023-04-03T01:58:19;8.83;;;4.17;;
8048;SDS011;20935;42.660;23.342;2023-04-03T02:01:04;6.10;;;4.60;;
8048;SDS011;20935;42.660;23.342;2023-04-03T02:03:50;4.93;;;3.77;;
8048;SDS011;20935;42.660;23.342;2023-04-03T02:06:37;5.37;;;4.87;;
8048;SDS011;20935;42.660;23.342;2023-04-03T02:09:22;8.93;;;5.27;;
8048;SDS011;20935;42.660;23.342;2023-04-03T02:12:07;8.73;;;5.17;;
8048;SDS011;20935;42.660;23.342;2023-04-03T02:14:53;7.47;;;5.13;;
8048;SDS011;20935;42.660;23.342;2023-04-03T02:17:38;8.27;;;5.20;;
8048;SDS011;20935;42.660;23.342;2023-04-03T02:20:24;9.53;;;5.40;;
8048;SDS011;20935;42.660;23.342;2023-04-03T02:23:11;10.97;;;6.47;;
8048;SDS011;20935;42.660;23.342;2023-04-03T02:26:02;11.10;;;7.27;;
8048;SDS011;20935;42.660;23.342;2023-04-03T02:28:49;10.67;;;7.13;;
8048;SDS011;20935;42.660;23.342;2023-04-03T02:31:34;10.27;;;6.97;;
8048;SDS011;20935;42.660;23.342;2023-04-03T02:34:20;13.43;;;7.70;;
8048;SDS011;20935;42.660;23.342;2023-04-03T02:37:06;10.50;;;6.73;;
8048;SDS011;20935;42.660;23.342;2023-04-03T02:39:53;6.90;;;6.20;;
8048;SDS011;20935;42.660;23.342;2023-04-03T02:42:38;9.17;;;5.37;;
8048;SDS011;20935;42.660;23.342;2023-04-03T02:45:24;9.73;;;6.73;;
8048;SDS011;20935;42.660;23.342;2023-04-03T02:48:09;10.40;;;6.20;;
8048;SDS011;20935;42.660;23.342;2023-04-03T02:50:55;14.10;;;6.50;;
8048;SDS011;20935;42.660;23.342;2023-04-03T02:53:41;9.37;;;5.47;;
8048;SDS011;20935;42.660;23.342;2023-04-03T02:56:28;11.83;;;6.40;;
8048;SDS011;20935;42.660;23.342;2023-04-03T02:59:13;8.57;;;6.03;;
8048;SDS011;20935;42.660;23.342;2023-04-03T03:01:58;6.10;;;5.47;;
8048;SDS011;20935;42.660;23.342;2023-04-03T03:04:44;9.00;;;6.43;;
8048;SDS011;20935;42.660;23.342;2023-04-03T03:07:29;10.80;;;7.17;;
8048;SDS011;20935;42.660;23.342;2023-04-03T03:10:15;11.83;;;6.57;;
8048;SDS011;20935;42.660;23.342;2023-04-03T03:13:01;9.13;;;6.60;;
8048;SDS011;20935;42.660;23.342;2023-04-03T03:15:47;11.00;;;6.37;;
8048;SDS011;20935;42.660;23.342;2023-04-03T03:18:33;9.80;;;6.23;;
8048;SDS011;20935;42.660;23.342;2023-04-03T03:21:18;10.93;;;6.60;;
8048;SDS011;20935;42.660;23.342;2023-04-03T03:24:04;13.13;;;7.20;;
8048;SDS011;20935;42.660;23.342;2023-04-03T03:26:50;9.77;;;6.77;;
8048;SDS011;20935;42.660;23.342;2023-04-03T03:29:36;13.57;;;7.47;;
8048;SDS011;20935;42.660;23.342;2023-04-03T03:32:22;20.50;;;7.83;;
8048;SDS011;20935;42.660;23.342;2023-04-03T03:35:08;12.33;;;6.87;;
8048;SDS011;20935;42.660;23.342;2023-04-03T03:37:53;13.97;;;7.10;;
8048;SDS011;20935;42.660;23.342;2023-04-03T03:40:39;14.97;;;7.40;;
8048;SDS011;20935;42.660;23.342;2023-04-03T03:43:24;9.90;;;6.80;;
8048;SDS011;20935;42.660;23.342;2023-04-03T03:46:11;11.53;;;8.80;;
8048;SDS011;20935;42.660;23.342;2023-04-03T03:48:56;12.20;;;7.57;;
8048;SDS011;20935;42.660;23.342;2023-04-03T03:51:42;11.50;;;7.73;;
8048;SDS011;20935;42.660;23.342;2023-04-03T03:54:28;10.57;;;8.03;;
8048;SDS011;20935;42.660;23.342;2023-04-03T03:57:13;15.20;;;7.90;;
8048;SDS011;20935;42.660;23.342;2023-04-03T03:59:59;10.53;;;7.87;;
8048;SDS011;20935;42.660;23.342;2023-04-03T04:02:46;12.73;;;6.70;;
8048;SDS011;20935;42.660;23.342;2023-04-03T04:05:32;11.90;;;7.30;;
8048;SDS011;20935;42.660;23.342;2023-04-03T04:08:18;10.43;;;7.10;;
8048;SDS011;20935;42.660;23.342;2023-04-03T04:11:04;9.40;;;6.77;;
8048;SDS011;20935;42.660;23.342;2023-04-03T04:13:49;13.80;;;7.83;;
8048;SDS011;20935;42.660;23.342;2023-04-03T04:16:34;11.83;;;7.13;;
8048;SDS011;20935;42.660;23.342;2023-04-03T04:19:21;8.43;;;6.20;;
8048;SDS011;20935;42.660;23.342;2023-04-03T04:22:07;10.17;;;6.90;;
8048;SDS011;20935;42.660;23.342;2023-04-03T04:24:52;12.67;;;7.23;;
8048;SDS011;20935;42.660;23.342;2023-04-03T04:27:38;12.30;;;6.87;;
8048;SDS011;20935;42.660;23.342;2023-04-03T04:30:23;9.23;;;6.47;;
8048;SDS011;20935;42.660;23.342;2023-04-03T04:33:09;16.77;;;7.97;;
8048;SDS011;20935;42.660;23.342;2023-04-03T04:35:56;9.50;;;6.93;;
8048;SDS011;20935;42.660;23.342;2023-04-03T04:38:41;12.77;;;7.13;;
8048;SDS011;20935;42.660;23.342;2023-04-03T04:41:27;12.07;;;7.63;;
8048;SDS011;20935;42.660;23.342;2023-04-03T04:44:12;12.03;;;8.07;;
8048;SDS011;20935;42.660;23.342;2023-04-03T04:46:58;11.33;;;7.73;;
8048;SDS011;20935;42.660;23.342;2023-04-03T04:49:44;15.10;;;7.87;;
8048;SDS011;20935;42.660;23.342;2023-04-03T04:52:32;13.17;;;7.53;;
8048;SDS011;20935;42.660;23.342;2023-04-03T04:55:18;11.40;;;7.87;;
8048;SDS011;20935;42.660;23.342;2023-04-03T04:58:03;13.23;;;8.00;;
8048;SDS011;20935;42.660;23.342;2023-04-03T05:00:48;19.70;;;9.40;;
8048;SDS011;20935;42.660;23.342;2023-04-03T05:03:34;18.40;;;8.70;;
8048;SDS011;20935;42.660;23.342;2023-04-03T05:06:20;11.10;;;7.40;;
8048;SDS011;20935;42.660;23.342;2023-04-03T05:09:07;16.67;;;8.17;;
8048;SDS011;20935;42.660;23.342;2023-04-03T05:11:53;17.57;;;8.30;;
8048;SDS011;20935;42.660;23.342;2023-04-03T05:14:39;17.87;;;8.03;;
8048;SDS011;20935;42.660;23.342;2023-04-03T05:17:25;13.80;;;9.80;;
8048;SDS011;20935;42.660;23.342;2023-04-03T05:20:11;19.93;;;10.90;;
8048;SDS011;20935;42.660;23.342;2023-04-03T05:22:57;20.37;;;10.60;;
8048;SDS011;20935;42.660;23.342;2023-04-03T05:25:43;14.23;;;9.93;;
8048;SDS011;20935;42.660;23.342;2023-04-03T05:28:30;21.40;;;13.60;;
8048;SDS011;20935;42.660;23.342;2023-04-03T05:31:15;21.50;;;12.50;;
8048;SDS011;20935;42.660;23.342;2023-04-03T05:34:01;18.83;;;11.93;;
8048;SDS011;20935;42.660;23.342;2023-04-03T05:36:47;18.60;;;11.43;;
8048;SDS011;20935;42.660;23.342;2023-04-03T05:39:32;17.53;;;11.13;;
8048;SDS011;20935;42.660;23.342;2023-04-03T05:42:19;21.60;;;12.67;;
8048;SDS011;20935;42.660;23.342;2023-04-03T05:45:04;20.73;;;14.67;;
8048;SDS011;20935;42.660;23.342;2023-04-03T05:47:51;24.63;;;17.27;;
8048;SDS011;20935;42.660;23.342;2023-04-03T05:50:36;25.90;;;14.20;;
8048;SDS011;20935;42.660;23.342;2023-04-03T05:53:25;16.83;;;10.47;;
8048;SDS011;20935;42.660;23.342;2023-04-03T05:56:13;15.30;;;10.80;;
8048;SDS011;20935;42.660;23.342;2023-04-03T05:59:00;16.87;;;11.47;;
8048;SDS011;20935;42.660;23.342;2023-04-03T06:01:45;13.97;;;9.83;;
8048;SDS011;20935;42.660;23.342;2023-04-03T06:04:31;12.80;;;9.07;;
8048;SDS011;20935;42.660;23.342;2023-04-03T06:07:17;16.53;;;11.10;;
8048;SDS011;20935;42.660;23.342;2023-04-03T06:10:06;22.63;;;10.23;;
8048;SDS011;20935;42.660;23.342;2023-04-03T06:12:52;18.50;;;10.87;;
8048;SDS011;20935;42.660;23.342;2023-04-03T06:15:39;15.40;;;9.93;;
8048;SDS011;20935;42.660;23.342;2023-04-03T06:18:25;19.83;;;10.13;;
8048;SDS011;20935;42.660;23.342;2023-04-03T06:21:10;16.83;;;10.63;;
8048;SDS011;20935;42.660;23.342;2023-04-03T06:23:55;21.60;;;10.93;;
8048;SDS011;20935;42.660;23.342;2023-04-03T06:26:41;14.77;;;9.67;;
8048;SDS011;20935;42.660;23.342;2023-04-03T06:29:27;15.50;;;10.67;;
8048;SDS011;20935;42.660;23.342;2023-04-03T06:32:13;19.07;;;10.80;;
8048;SDS011;20935;42.660;23.342;2023-04-03T06:34:59;18.97;;;11.03;;
8048;SDS011;20935;42.660;23.342;2023-04-03T06:37:44;20.40;;;10.27;;
8048;SDS011;20935;42.660;23.342;2023-04-03T06:40:30;20.03;;;11.13;;
8048;SDS011;20935;42.660;23.342;2023-04-03T06:43:15;18.60;;;10.50;;
8048;SDS011;20935;42.660;23.342;2023-04-03T06:46:01;15.30;;;9.90;;
8048;SDS011;20935;42.660;23.342;2023-04-03T06:48:48;20.57;;;10.93;;
8048;SDS011;20935;42.660;23.342;2023-04-03T06:51:34;17.70;;;10.60;;
8048;SDS011;20935;42.660;23.342;2023-04-03T06:54:20;19.30;;;11.40;;
8048;SDS011;20935;42.660;23.342;2023-04-03T06:57:06;19.07;;;11.53;;
8048;SDS011;20935;42.660;23.342;2023-04-03T06:59:52;24.87;;;14.70;;
8048;SDS011;20935;42.660;23.342;2023-04-03T07:02:37;22.20;;;13.90;;
8048;SDS011;20935;42.660;23.342;2023-04-03T07:05:25;24.30;;;13.93;;
8048;SDS011;20935;42.660;23.342;2023-04-03T07:08:11;22.37;;;14.23;;
8048;SDS011;20935;42.660;23.342;2023-04-03T07:10:56;22.07;;;11.53;;
8048;SDS011;20935;42.660;23.342;2023-04-03T07:13:42;10.80;;;8.07;;
8048;SDS011;20935;42.660;23.342;2023-04-03T07:16:28;14.80;;;9.03;;
8048;SDS011;20935;42.660;23.342;2023-04-03T07:19:14;16.17;;;8.93;;
8048;SDS011;20935;42.660;23.342;2023-04-03T07:22:03;11.50;;;8.53;;
8048;SDS011;20935;42.660;23.342;2023-04-03T07:24:48;15.97;;;9.00;;
8048;SDS011;20935;42.660;23.342;2023-04-03T07:27:34;13.30;;;9.37;;
8048;SDS011;20935;42.660;23.342;2023-04-03T07:30:19;19.67;;;9.17;;
8048;SDS011;20935;42.660;23.342;2023-04-03T07:33:05;14.70;;;9.60;;
8048;SDS011;20935;42.660;23.342;2023-04-03T07:35:50;15.03;;;9.10;;
8048;SDS011;20935;42.660;23.342;2023-04-03T07:38:37;12.90;;;9.33;;
8048;SDS011;20935;42.660;23.342;2023-04-03T07:41:22;11.07;;;8.77;;
8048;SDS011;20935;42.660;23.342;2023-04-03T07:44:08;11.23;;;8.77;;
8048;SDS011;20935;42.660;23.342;2023-04-03T07:46:54;11.07;;;7.87;;
8048;SDS011;20935;42.660;23.342;2023-04-03T07:49:40;14.50;;;10.07;;
8048;SDS011;20935;42.660;23.342;2023-04-03T07:52:26;15.90;;;11.00;;
8048;SDS011;20935;42.660;23.342;2023-04-03T07:55:12;15.27;;;10.97;;
8048;SDS011;20935;42.660;23.342;2023-04-03T07:57:58;16.13;;;11.33;;
8048;SDS011;20935;42.660;23.342;2023-04-03T08:00:43;12.30;;;10.60;;
8048;SDS011;20935;42.660;23.342;2023-04-03T08:03:28;20.60;;;11.97;;
8048;SDS011;20935;42.660;23.342;2023-04-03T08:06:14;20.57;;;14.13;;
8048;SDS011;20935;42.660;23.342;2023-04-03T08:09:00;29.27;;;18.83;;
8048;SDS011;20935;42.660;23.342;2023-04-03T08:11:47;31.83;;;20.23;;
8048;SDS011;20935;42.660;23.342;2023-04-03T08:14:32;32.03;;;20.63;;
8048;SDS011;20935;42.660;23.342;2023-04-03T08:17:18;36.17;;;21.13;;
8048;SDS011;20935;42.660;23.342;2023-04-03T08:20:04;26.93;;;20.23;;
8048;SDS011;20935;42.660;23.342;2023-04-03T08:22:51;27.20;;;18.30;;
8048;SDS011;20935;42.660;23.342;2023-04-03T08:25:37;29.87;;;19.47;;
8048;SDS011;20935;42.660;23.342;2023-04-03T08:28:24;27.77;;;19.60;;
8048;SDS011;20935;42.660;23.342;2023-04-03T08:31:11;25.53;;;18.20;;
8048;SDS011;20935;42.660;23.342;2023-04-03T08:33:59;30.00;;;18.23;;
8048;SDS011;20935;42.660;23.342;2023-04-03T08:36:44;28.13;;;16.80;;
8048;SDS011;20935;42.660;23.342;2023-04-03T08:39:30;28.67;;;16.63;;
8048;SDS011;20935;42.660;23.342;2023-04-03T08:42:16;29.57;;;16.43;;
8048;SDS011;20935;42.660;23.342;2023-04-03T08:45:09;24.37;;;14.60;;
8048;SDS011;20935;42.660;23.342;2023-04-03T08:47:58;22.47;;;14.87;;
8048;SDS011;20935;42.660;23.342;2023-04-03T08:50:51;23.00;;;15.53;;
8048;SDS011;20935;42.660;23.342;2023-04-03T08:53:42;26.67;;;14.63;;
8048;SDS011;20935;42.660;23.342;2023-04-03T08:56:31;20.00;;;15.00;;
8048;SDS011;20935;42.660;23.342;2023-04-03T08:59:21;17.57;;;13.43;;
8048;SDS011;20935;42.660;23.342;2023-04-03T09:02:18;20.40;;;14.03;;
8048;SDS011;20935;42.660;23.342;2023-04-03T09:05:11;16.37;;;10.27;;
8048;SDS011;20935;42.660;23.342;2023-04-03T09:07:59;21.03;;;11.83;;
8048;SDS011;20935;42.660;23.342;2023-04-03T09:10:49;20.67;;;12.23;;
8048;SDS011;20935;42.660;23.342;2023-04-03T09:13:45;17.40;;;12.43;;
8048;SDS011;20935;42.660;23.342;2023-04-03T09:16:39;19.03;;;12.10;;
8048;SDS011;20935;42.660;23.342;2023-04-03T09:19:35;15.97;;;11.10;;
8048;SDS011;20935;42.660;23.342;2023-04-03T09:22:27;16.70;;;10.93;;
8048;SDS011;20935;42.660;23.342;2023-04-03T09:25:17;13.07;;;11.10;;
8048;SDS011;20935;42.660;23.342;2023-04-03T09:28:05;18.27;;;9.67;;
8048;SDS011;20935;42.660;23.342;2023-04-03T09:30:53;23.77;;;10.87;;
8048;SDS011;20935;42.660;23.342;2023-04-03T09:33:39;14.27;;;7.40;;
8048;SDS011;20935;42.660;23.342;2023-04-03T09:36:39;11.30;;;7.67;;
8048;SDS011;20935;42.660;23.342;2023-04-03T09:39:27;14.47;;;7.47;;
8048;SDS011;20935;42.660;23.342;2023-04-03T09:42:15;9.53;;;7.10;;
8048;SDS011;20935;42.660;23.342;2023-04-03T09:45:04;7.63;;;5.63;;
8048;SDS011;20935;42.660;23.342;2023-04-03T09:48:07;13.90;;;6.37;;
8048;SDS011;20935;42.660;23.342;2023-04-03T09:51:01;8.83;;;5.33;;
8048;SDS011;20935;42.660;23.342;2023-04-03T09:53:51;10.33;;;6.50;;
8048;SDS011;20935;42.660;23.342;2023-04-03T09:56:37;9.57;;;5.10;;
8048;SDS011;20935;42.660;23.342;2023-04-03T09:59:23;5.90;;;4.70;;
8048;SDS011;20935;42.660;23.342;2023-04-03T10:02:19;6.27;;;5.03;;
8048;SDS011;20935;42.660;23.342;2023-04-03T10:05:25;5.57;;;4.03;;
8048;SDS011;20935;42.660;23.342;2023-04-03T10:08:19;11.00;;;5.10;;
8048;SDS011;20935;42.660;23.342;2023-04-03T10:11:10;8.03;;;5.20;;
8048;SDS011;20935;42.660;23.342;2023-04-03T10:13:58;8.73;;;5.17;;
8048;SDS011;20935;42.660;23.342;2023-04-03T10:16:46;8.40;;;5.77;;
8048;SDS011;20935;42.660;23.342;2023-04-03T10:19:39;12.77;;;6.60;;
8048;SDS011;20935;42.660;23.342;2023-04-03T10:22:30;12.13;;;7.60;;
8048;SDS011;20935;42.660;23.342;2023-04-03T10:25:26;12.27;;;8.77;;
8048;SDS011;20935;42.660;23.342;2023-04-03T10:28:19;11.73;;;8.13;;
8048;SDS011;20935;42.660;23.342;2023-04-03T10:31:12;13.90;;;7.67;;
8048;SDS011;20935;42.660;23.342;2023-04-03T10:34:04;8.50;;;5.57;;
8048;SDS011;20935;42.660;23.342;2023-04-03T10:36:54;11.40;;;5.80;;
8048;SDS011;20935;42.660;23.342;2023-04-03T10:39:46;5.80;;;3.93;;
8048;SDS011;20935;42.660;23.342;2023-04-03T10:42:39;5.93;;;4.47;;
8048;SDS011;20935;42.660;23.342;2023-04-03T10:45:34;3.87;;;3.40;;
8048;SDS011;20935;42.660;23.342;2023-04-03T10:48:35;6.17;;;3.80;;
8048;SDS011;20935;42.660;23.342;2023-04-03T10:51:33;4.97;;;3.90;;
8048;SDS011;20935;42.660;23.342;2023-04-03T10:54:26;4.93;;;3.57;;
8048;SDS011;20935;42.660;23.342;2023-04-03T10:57:19;5.20;;;3.90;;
8048;SDS011;20935;42.660;23.342;2023-04-03T11:00:13;5.70;;;3.20;;
8048;SDS011;20935;42.660;23.342;2023-04-03T11:03:05;6.73;;;3.47;;
8048;SDS011;20935;42.660;23.342;2023-04-03T11:05:56;5.60;;;3.20;;
8048;SDS011;20935;42.660;23.342;2023-04-03T11:08:45;4.47;;;3.23;;
8048;SDS011;20935;42.660;23.342;2023-04-03T11:11:38;2.97;;;2.67;;
8048;SDS011;20935;42.660;23.342;2023-04-03T11:14:26;2.87;;;2.60;;
8048;SDS011;20935;42.660;23.342;2023-04-03T11:17:22;7.43;;;3.57;;
8048;SDS011;20935;42.660;23.342;2023-04-03T11:20:17;3.97;;;3.20;;
8048;SDS011;20935;42.660;23.342;2023-04-03T11:23:12;6.70;;;3.17;;
8048;SDS011;20935;42.660;23.342;2023-04-03T11:26:07;7.83;;;3.63;;
8048;SDS011;20935;42.660;23.342;2023-04-03T11:28:57;5.87;;;4.07;;
8048;SDS011;20935;42.660;23.342;2023-04-03T11:31:56;4.47;;;3.47;;
8048;SDS011;20935;42.660;23.342;2023-04-03T11:34:56;5.07;;;3.70;;
8048;SDS011;20935;42.660;23.342;2023-04-03T11:37:47;4.10;;;3.40;;
8048;SDS011;20935;42.660;23.342;2023-04-03T11:40:35;6.27;;;3.57;;
8048;SDS011;20935;42.660;23.342;2023-04-03T11:43:25;3.53;;;3.23;;
8048;SDS011;20935;42.660;23.342;2023-04-03T11:46:13;4.60;;;3.70;;
8048;SDS011;20935;42.660;23.342;2023-04-03T11:48:59;4.27;;;3.47;;
8048;SDS011;20935;42.660;23.342;2023-04-03T11:51:45;4.40;;;3.20;;
8048;SDS011;20935;42.660;23.342;2023-04-03T11:54:46;6.80;;;3.67;;
8048;SDS011;20935;42.660;23.342;2023-04-03T12:01:06;5.60;;;3.50;;
8048;SDS011;20935;42.660;23.342;2023-04-03T12:03:58;4.73;;;3.40;;
8048;SDS011;20935;42.660;23.342;2023-04-03T12:07:01;5.17;;;4.27;;
8048;SDS011;20935;42.660;23.342;2023-04-03T12:10:14;5.07;;;3.93;;
8048;SDS011;20935;42.660;23.342;2023-04-03T12:13:12;6.17;;;3.80;;
8048;SDS011;20935;42.660;23.342;2023-04-03T12:16:01;5.63;;;3.87;;
8048;SDS011;20935;42.660;23.342;2023-04-03T12:18:55;5.77;;;4.23;;
8048;SDS011;20935;42.660;23.342;2023-04-03T12:24:53;7.07;;;5.23;;
8048;SDS011;20935;42.660;23.342;2023-04-03T12:27:40;6.90;;;4.40;;
8048;SDS011;20935;42.660;23.342;2023-04-03T12:30:27;4.13;;;3.80;;
8048;SDS011;20935;42.660;23.342;2023-04-03T12:33:18;4.87;;;3.47;;
8048;SDS011;20935;42.660;23.342;2023-04-03T12:36:10;5.90;;;4.53;;
8048;SDS011;20935;42.660;23.342;2023-04-03T12:39:06;3.87;;;3.57;;
8048;SDS011;20935;42.660;23.342;2023-04-03T12:42:04;4.27;;;3.87;;
8048;SDS011;20935;42.660;23.342;2023-04-03T12:45:06;4.70;;;3.90;;
8048;SDS011;20935;42.660;23.342;2023-04-03T12:47:58;5.10;;;4.00;;
8048;SDS011;20935;42.660;23.342;2023-04-03T12:50:51;5.87;;;4.23;;
8048;SDS011;20935;42.660;23.342;2023-04-03T12:53:37;7.27;;;4.57;;
8048;SDS011;20935;42.660;23.342;2023-04-03T12:56:24;4.77;;;4.37;;
8048;SDS011;20935;42.660;23.342;2023-04-03T12:59:16;7.90;;;4.37;;
8048;SDS011;20935;42.660;23.342;2023-04-03T13:02:08;6.00;;;4.63;;
8048;SDS011;20935;42.660;23.342;2023-04-03T13:05:06;4.40;;;4.00;;
8048;SDS011;20935;42.660;23.342;2023-04-03T13:07:55;5.80;;;4.70;;
8048;SDS011;20935;42.660;23.342;2023-04-03T13:10:48;5.20;;;4.70;;
8048;SDS011;20935;42.660;23.342;2023-04-03T13:13:38;5.87;;;5.30;;
8048;SDS011;20935;42.660;23.342;2023-04-03T13:16:24;5.87;;;4.87;;
8048;SDS011;20935;42.660;23.342;2023-04-03T13:19:16;7.83;;;5.47;;
8048;SDS011;20935;42.660;23.342;2023-04-03T13:22:03;9.20;;;5.20;;
8048;SDS011;20935;42.660;23.342;2023-04-03T13:24:51;6.53;;;5.33;;
8048;SDS011;20935;42.660;23.342;2023-04-03T13:27:39;6.30;;;5.70;;
8048;SDS011;20935;42.660;23.342;2023-04-03T13:30:28;5.73;;;4.87;;
8048;SDS011;20935;42.660;23.342;2023-04-03T13:33:20;9.67;;;6.87;;
8048;SDS011;20935;42.660;23.342;2023-04-03T13:36:11;7.10;;;5.90;;
8048;SDS011;20935;42.660;23.342;2023-04-03T13:39:03;6.70;;;6.10;;
8048;SDS011;20935;42.660;23.342;2023-04-03T13:41:52;8.53;;;6.37;;
8048;SDS011;20935;42.660;23.342;2023-04-03T13:44:39;9.57;;;6.70;;
8048;SDS011;20935;42.660;23.342;2023-04-03T13:47:24;7.17;;;6.57;;
8048;SDS011;20935;42.660;23.342;2023-04-03T13:50:13;8.07;;;6.37;;
8048;SDS011;20935;42.660;23.342;2023-04-03T13:53:03;7.87;;;6.47;;
8048;SDS011;20935;42.660;23.342;2023-04-03T13:56:00;7.23;;;6.53;;
8048;SDS011;20935;42.660;23.342;2023-04-03T13:58:53;7.77;;;6.97;;
8048;SDS011;20935;42.660;23.342;2023-04-03T14:01:43;6.27;;;5.70;;
8048;SDS011;20935;42.660;23.342;2023-04-03T14:04:33;7.13;;;5.87;;
8048;SDS011;20935;42.660;23.342;2023-04-03T14:07:31;6.60;;;6.00;;
8048;SDS011;20935;42.660;23.342;2023-04-03T14:10:18;8.27;;;6.00;;
8048;SDS011;20935;42.660;23.342;2023-04-03T14:13:03;6.83;;;5.83;;
8048;SDS011;20935;42.660;23.342;2023-04-03T14:15:49;7.00;;;5.77;;
8048;SDS011;20935;42.660;23.342;2023-04-03T14:18:35;7.80;;;7.00;;
8048;SDS011;20935;42.660;23.342;2023-04-03T14:21:21;8.33;;;6.93;;
8048;SDS011;20935;42.660;23.342;2023-04-03T14:24:06;9.63;;;6.97;;
8048;SDS011;20935;42.660;23.342;2023-04-03T14:26:53;11.53;;;8.90;;
8048;SDS011;20935;42.660;23.342;2023-04-03T14:29:39;10.03;;;6.97;;
8048;SDS011;20935;42.660;23.342;2023-04-03T14:32:25;10.67;;;7.90;;
8048;SDS011;20935;42.660;23.342;2023-04-03T14:35:11;6.93;;;6.23;;
8048;SDS011;20935;42.660;23.342;2023-04-03T14:37:56;9.70;;;7.47;;
8048;SDS011;20935;42.660;23.342;2023-04-03T14:40:42;11.10;;;8.07;;
8048;SDS011;20935;42.660;23.342;2023-04-03T14:43:29;12.07;;;7.83;;
8048;SDS011;20935;42.660;23.342;2023-04-03T14:46:15;9.17;;;6.67;;
8048;SDS011;20935;42.660;23.342;2023-04-03T14:49:02;6.50;;;5.87;;
8048;SDS011;20935;42.660;23.342;2023-04-03T14:51:51;6.60;;;5.67;;
8048;SDS011;20935;42.660;23.342;2023-04-03T14:54:36;5.50;;;5.00;;
8048;SDS011;20935;42.660;23.342;2023-04-03T14:57:22;6.00;;;5.40;;
8048;SDS011;20935;42.660;23.342;2023-04-03T15:00:14;6.20;;;5.57;;
8048;SDS011;20935;42.660;23.342;2023-04-03T15:03:01;5.77;;;5.20;;
8048;SDS011;20935;42.660;23.342;2023-04-03T15:05:50;5.10;;;4.60;;
8048;SDS011;20935;42.660;23.342;2023-04-03T15:08:35;7.37;;;5.67;;
8048;SDS011;20935;42.660;23.342;2023-04-03T15:11:20;7.97;;;5.93;;
8048;SDS011;20935;42.660;23.342;2023-04-03T15:14:07;7.80;;;5.90;;
8048;SDS011;20935;42.660;23.342;2023-04-03T15:16:55;6.77;;;5.80;;
8048;SDS011;20935;42.660;23.342;2023-04-03T15:19:41;5.67;;;5.17;;
8048;SDS011;20935;42.660;23.342;2023-04-03T15:22:28;6.27;;;5.30;;
8048;SDS011;20935;42.660;23.342;2023-04-03T15:25:13;5.97;;;5.30;;
8048;SDS011;20935;42.660;23.342;2023-04-03T15:27:59;7.13;;;5.23;;
8048;SDS011;20935;42.660;23.342;2023-04-03T15:30:44;5.53;;;5.00;;
8048;SDS011;20935;42.660;23.342;2023-04-03T15:33:32;6.67;;;5.17;;
8048;SDS011;20935;42.660;23.342;2023-04-03T15:36:18;7.10;;;4.97;;
8048;SDS011;20935;42.660;23.342;2023-04-03T15:39:04;6.07;;;4.83;;
8048;SDS011;20935;42.660;23.342;2023-04-03T15:41:49;6.13;;;5.53;;
8048;SDS011;20935;42.660;23.342;2023-04-03T15:44:36;6.37;;;5.33;;
8048;SDS011;20935;42.660;23.342;2023-04-03T15:47:21;5.47;;;4.77;;
8048;SDS011;20935;42.660;23.342;2023-04-03T15:50:09;6.23;;;4.63;;
8048;SDS011;20935;42.660;23.342;2023-04-03T15:52:55;5.17;;;4.67;;
8048;SDS011;20935;42.660;23.342;2023-04-03T15:55:41;5.13;;;4.63;;
8048;SDS011;20935;42.660;23.342;2023-04-03T15:58:27;6.03;;;4.47;;
8048;SDS011;20935;42.660;23.342;2023-04-03T16:01:13;7.30;;;4.83;;
8048;SDS011;20935;42.660;23.342;2023-04-03T16:03:58;6.20;;;5.60;;
8048;SDS011;20935;42.660;23.342;2023-04-03T16:06:45;7.73;;;5.30;;
8048;SDS011;20935;42.660;23.342;2023-04-03T16:09:31;5.43;;;4.93;;
8048;SDS011;20935;42.660;23.342;2023-04-03T16:12:18;6.37;;;5.00;;
8048;SDS011;20935;42.660;23.342;2023-04-03T16:15:04;6.70;;;5.07;;
8048;SDS011;20935;42.660;23.342;2023-04-03T16:17:50;6.60;;;5.03;;
8048;SDS011;20935;42.660;23.342;2023-04-03T16:20:37;6.17;;;5.57;;
8048;SDS011;20935;42.660;23.342;2023-04-03T16:23:24;6.10;;;5.50;;
8048;SDS011;20935;42.660;23.342;2023-04-03T16:26:10;5.83;;;5.23;;
8048;SDS011;20935;42.660;23.342;2023-04-03T16:28:55;6.00;;;5.50;;
8048;SDS011;20935;42.660;23.342;2023-04-03T16:31:40;6.17;;;5.50;;
8048;SDS011;20935;42.660;23.342;2023-04-03T16:34:26;6.07;;;5.53;;
8048;SDS011;20935;42.660;23.342;2023-04-03T16:37:13;5.90;;;5.30;;
8048;SDS011;20935;42.660;23.342;2023-04-03T16:40:00;5.87;;;5.37;;
8048;SDS011;20935;42.660;23.342;2023-04-03T16:42:45;5.43;;;4.77;;
8048;SDS011;20935;42.660;23.342;2023-04-03T16:45:31;6.20;;;5.57;;
8048;SDS011;20935;42.660;23.342;2023-04-03T16:48:17;6.87;;;5.73;;